Latest Weather Observations for Yamba

IDN60801

Issued at 7:35 pm EST Thursday 31 July 2014 (issued every 30 minutes, with the page automatically refreshed every 10 minutes)

About weather observations | Map of weather stations | Latest weather observations for NSW | Other Formats
Station Details ID: 058012 Name: YAMBA PILOT STATION Lat: -29.43 Lon: 153.36 Height: 27.4 m
Data from the previous 72 hours. | See also: Recent months at Yamba
Date/Time
EST
Temp
°C
App
Temp
°C
Dew
Point
Rel
Hum
%
Delta-T
°C
Wind Press
QNH
hPa
Press
MSL
hPa
Rain
since 9 am
mm
Dir
 
Spd
km/h
Gust
km/h
Spd
kts
Gust
kts
31/07:30pm 17.0 16.0 14.5 85 1.4 N 13 20 7 11 1014.6 - 0.0
31/07:00pm 17.7 16.8 14.8 83 1.7 N 13 19 7 10 1014.1 - 0.0
31/06:30pm 18.4 18.0 16.2 87 1.3 N 13 20 7 11 1014.0 - 0.0
31/06:00pm 18.7 18.5 16.7 88 1.2 N 13 24 7 13 1013.8 1013.8 0.0
31/05:30pm 18.7 19.0 17.0 90 1.0 N 11 19 6 10 1013.7 - 0.0
31/05:00pm 19.2 19.4 16.8 86 1.4 N 11 19 6 10 1013.8 - 0.0
31/04:30pm 19.8 20.1 16.1 79 2.2 N 9 17 5 9 1013.7 - 0.0
31/04:00pm 20.9 21.6 17.1 79 2.3 N 9 17 5 9 1013.7 - 0.0
31/03:30pm 21.0 20.8 15.8 72 3.1 N 11 20 6 11 1014.0 - 0.0
31/03:00pm 20.7 21.1 16.3 76 2.7 NNE 9 17 5 9 1014.4 1014.3 0.0
31/02:30pm 21.0 21.0 15.3 70 3.4 NE 9 17 5 9 1014.7 - 0.0
31/02:00pm 21.5 21.0 13.9 62 4.4 NE 9 17 5 9 1015.0 - 0.0
31/01:30pm 21.9 21.9 14.3 62 4.4 NE 7 13 4 7 1015.5 - 0.0
31/01:00pm 21.1 20.6 13.8 63 4.2 NNE 9 13 5 7 1016.2 - 0.0
31/12:30pm 22.2 21.6 13.5 57 5.0 N 9 17 5 9 1016.9 - 0.0
31/12:00pm 22.0 21.6 12.3 54 5.5 N 6 11 3 6 1017.6 1017.5 0.0
31/11:30am 20.4 19.7 12.1 59 4.6 NNE 7 11 4 6 1018.5 - 0.0
31/11:00am 18.8 17.6 10.4 58 4.5 NE 7 11 4 6 1019.2 - 0.0
31/10:30am 18.8 17.2 8.7 52 5.3 NNW 7 9 4 5 1019.9 - 0.0
31/10:00am 17.6 16.5 10.7 64 3.7 NNW 7 11 4 6 1020.3 - 0.0
31/09:30am 16.5 15.0 10.6 68 3.1 WNW 9 15 5 8 1020.2 - 0.0
31/09:00am 14.2 12.5 9.8 75 2.3 W 9 11 5 6 1020.1 1020.2 0.0
31/08:30am 12.6 10.7 9.2 80 1.7 W 9 13 5 7 1020.0 - 0.0
31/08:00am 10.8 8.5 8.9 88 0.9 WSW 11 15 6 8 1019.9 - 0.0
31/07:30am 9.4 6.6 8.6 95 0.4 WSW 13 17 7 9 1019.8 - 0.0
31/07:00am 8.4 5.0 7.6 95 0.4 WSW 15 15 8 8 1019.7 - 0.0
31/06:30am 8.6 5.1 7.4 92 0.6 WSW 15 19 8 10 1019.3 - 0.0
31/06:00am 8.8 5.7 7.4 91 0.7 WSW 13 15 7 8 1019.2 1019.2 0.0
31/05:30am 9.0 6.6 7.0 87 0.9 WSW 9 15 5 8 1019.1 - 0.0
31/05:00am 9.3 6.8 8.2 93 0.5 WSW 11 15 6 8 1018.7 - 0.0
31/04:30am 10.0 7.5 8.3 89 0.8 WSW 11 15 6 8 1018.7 - 0.0
31/04:00am 10.0 6.9 8.9 93 0.5 WSW 15 20 8 11 1018.4 - 0.0
31/03:30am 9.7 7.0 9.1 96 0.3 W 13 17 7 9 1018.6 - 0.0
31/03:00am 9.5 7.3 9.2 98 0.1 W 11 15 6 8 1018.7 1018.7 0.0
31/02:30am 9.9 8.0 9.1 95 0.4 WSW 9 15 5 8 1019.0 - 0.0
31/02:00am 10.5 7.9 9.4 93 0.5 WSW 13 17 7 9 1019.0 - 0.0
31/01:30am 11.1 8.8 10.5 96 0.3 WSW 13 15 7 8 1019.1 - 0.0
31/01:00am 11.9 10.9 11.0 94 0.5 NNW 7 9 4 5 1019.3 - 0.0
31/12:30am 12.4 11.2 11.5 94 0.5 WNW 9 9 5 5 1019.5 - 0.0
31/12:00am 12.1 10.6 10.5 90 0.8 NW 9 11 5 6 1019.8 1019.8 0.0
 
Date/Time
EST
Temp
°C
App
Temp
°C
Dew
Point
Rel
Hum
%
Delta-T
°C
Wind Press
QNH
hPa
Press
MSL
hPa
Rain
since 9 am
mm
Dir
 
Spd
km/h
Gust
km/h
Spd
kts
Gust
kts
30/11:30pm 12.9 11.4 10.4 85 1.3 W 9 11 5 6 1020.1 - 0.0
30/11:00pm 13.6 12.2 10.8 83 1.5 WNW 9 13 5 7 1020.1 - 0.0
30/10:30pm 13.8 12.3 10.6 81 1.7 NW 9 15 5 8 1020.0 - 0.0
30/10:00pm 14.3 13.0 11.1 81 1.7 NW 9 11 5 6 1020.0 - 0.0
30/09:30pm 14.9 13.4 11.9 82 1.6 NNW 11 17 6 9 1019.9 - 0.0
30/09:00pm 14.9 13.6 12.4 85 1.4 N 11 15 6 8 1019.6 1019.6 0.0
30/08:30pm 15.2 14.0 12.9 86 1.3 NNW 11 15 6 8 1019.6 - 0.0
30/08:00pm 15.1 14.1 12.2 83 1.6 N 9 15 5 8 1019.4 - 0.0
30/07:30pm 15.6 14.7 12.5 82 1.7 NNW 9 13 5 7 1019.5 - 0.0
30/07:00pm 15.5 14.2 11.1 75 2.4 N 9 15 5 8 1019.3 - 0.0
30/06:30pm 16.6 15.9 11.9 74 2.6 N 7 13 4 7 1019.2 - 0.0
30/06:00pm 16.1 15.2 11.5 74 2.5 N 7 13 4 7 1019.1 1019.1 0.0
30/05:30pm 16.8 15.8 11.1 69 3.1 NNW 7 13 4 7 1019.0 - 0.0
30/05:00pm 17.7 16.4 11.3 66 3.5 N 9 17 5 9 1018.8 - 0.0
30/04:30pm 18.4 17.2 9.7 57 4.6 NE 6 9 3 5 1018.8 - 0.0
30/04:00pm 20.1 19.2 10.5 54 5.2 NNE 6 9 3 5 1018.7 - 0.0
30/03:30pm 19.7 18.4 9.9 53 5.2 ENE 7 9 4 5 1018.5 - 0.0
30/03:00pm 20.2 18.9 10.0 52 5.5 ENE 7 11 4 6 1018.5 1018.4 0.0
30/02:30pm 20.4 19.0 10.8 54 5.2 ENE 9 13 5 7 1018.7 - 0.0
30/02:00pm 20.6 19.6 12.3 59 4.7 ENE 9 11 5 6 1018.9 - 0.0
30/01:30pm 20.5 19.1 10.9 54 5.3 E 9 11 5 6 1019.2 - 0.0
30/01:00pm 20.5 18.9 10.3 52 5.5 ENE 9 13 5 7 1019.5 - 0.0
30/12:30pm 21.2 20.3 10.7 51 5.8 E 6 11 3 6 1019.8 - 0.0
30/12:00pm 20.9 19.9 11.0 53 5.4 W 7 11 4 6 1020.4 1020.4 0.0
30/11:30am 20.2 19.1 10.6 54 5.2 WNW 7 13 4 7 1020.8 - 0.0
30/11:00am 19.4 18.2 10.4 56 4.9 WNW 7 13 4 7 1021.4 - 0.0
30/10:30am 17.8 15.3 8.1 53 5.0 WNW 11 17 6 9 1021.9 - 0.0
30/10:00am 17.1 15.3 9.5 61 4.0 WNW 9 13 5 7 1022.2 - 0.0
30/09:30am 15.7 13.9 9.4 66 3.3 NW 9 15 5 8 1022.3 - 0.0
30/09:00am 14.5 12.7 9.3 71 2.7 NW 9 15 5 8 1022.5 1022.5 0.0
30/08:30am 12.9 10.6 9.0 77 2.0 WNW 11 17 6 9 1022.2 - 0.0
30/08:00am 11.0 8.1 8.0 82 1.5 W 13 17 7 9 1022.0 - 0.0
30/07:30am 9.5 6.4 7.4 87 1.0 WSW 13 17 7 9 1021.8 - 0.0
30/07:00am 8.6 5.0 6.7 88 0.9 WSW 15 20 8 11 1021.6 - 0.0
30/06:30am 8.6 5.1 7.4 92 0.6 WSW 15 19 8 10 1021.3 - 0.0
30/06:00am 8.6 5.3 8.0 96 0.3 W 15 20 8 11 1021.0 1021.0 0.0
30/05:30am 8.6 5.3 8.0 96 0.3 W 15 19 8 10 1020.6 - 0.0
30/05:00am 8.9 5.6 8.1 95 0.4 W 15 19 8 10 1020.5 - 0.0
30/04:30am 9.1 5.7 7.7 91 0.7 W 15 19 8 10 1020.1 - 0.0
30/04:00am 9.1 6.4 7.5 90 0.8 WSW 11 15 6 8 1020.3 - 0.0
30/03:30am 9.4 6.8 7.7 89 0.8 WSW 11 15 6 8 1020.2 - 0.0
30/03:00am 9.9 7.7 7.8 87 1.0 WSW 9 13 5 7 1020.2 1020.2 0.0
30/02:30am 10.7 7.9 8.6 87 1.0 WSW 13 19 7 10 1020.1 - 0.0
30/02:00am 10.8 8.4 8.6 86 1.1 WSW 11 17 6 9 1020.3 - 0.0
30/01:30am 11.3 8.3 9.2 87 1.1 WSW 15 19 8 10 1020.2 - 0.0
30/01:00am 11.5 9.0 9.6 88 1.0 W 13 19 7 10 1020.5 - 0.0
30/12:30am 11.5 9.0 9.6 88 1.0 W 13 17 7 9 1020.6 - 0.0
30/12:00am 11.8 9.0 9.9 88 1.0 W 15 19 8 10 1020.7 1020.7 0.0
 
Date/Time
EST
Temp
°C
App
Temp
°C
Dew
Point
Rel
Hum
%
Delta-T
°C
Wind Press
QNH
hPa
Press
MSL
hPa
Rain
since 9 am
mm
Dir
 
Spd
km/h
Gust
km/h
Spd
kts
Gust
kts
29/11:30pm 12.2 9.8 9.9 86 1.2 W 13 19 7 10 1020.6 - 0.0
29/11:00pm 12.7 11.5 10.4 86 1.2 NW 7 13 4 7 1020.9 - 0.0
29/10:30pm 13.0 11.4 10.2 83 1.4 NW 9 15 5 8 1021.0 - 0.0
29/10:00pm 14.0 12.2 11.0 82 1.6 NW 11 17 6 9 1020.8 - 0.0
29/09:30pm 14.3 12.5 10.9 80 1.8 NNW 11 17 6 9 1020.5 - 0.0
29/09:00pm 14.4 12.7 11.2 81 1.7 NNW 11 15 6 8 1020.3 1020.3 0.0
29/08:30pm 14.8 13.2 11.6 81 1.7 NNW 11 17 6 9 1020.2 - 0.0
29/08:00pm 16.7 16.2 12.7 77 2.2 N 7 13 4 7 1020.0 - 0.0
29/07:30pm 16.6 15.9 11.9 74 2.6 N 7 15 4 8 1019.8 - 0.0
29/07:00pm 16.6 15.8 11.7 73 2.7 N 7 13 4 7 1019.4 - 0.0
29/06:30pm 16.6 15.7 11.3 71 2.9 N 7 15 4 8 1019.3 - 0.0
29/06:00pm 16.6 15.7 11.5 72 2.8 NNW 7 13 4 7 1018.9 1018.9 0.0
29/05:30pm 16.7 15.5 11.6 72 2.8 N 9 15 5 8 1018.6 - 0.0
29/05:00pm 16.9 15.6 11.2 69 3.1 N 9 17 5 9 1018.5 - 0.0
29/04:30pm 17.7 16.3 11.0 65 3.6 NNE 9 17 5 9 1018.6 - 0.0
29/04:00pm 18.4 16.9 10.7 61 4.2 NE 9 13 5 7 1018.7 - 0.0
29/03:30pm 19.1 17.4 9.9 55 4.9 NE 9 13 5 7 1019.0 - 0.0
29/03:00pm 19.4 17.6 9.6 53 5.2 E 9 15 5 8 1018.9 1018.9 0.0
29/02:30pm 19.4 17.6 9.3 52 5.3 E 9 11 5 6 1019.0 - 0.0
29/02:00pm 22.1 19.8 5.9 35 8.2 N 7 13 4 7 1019.2 - 0.0
29/01:30pm 21.8 19.8 7.2 39 7.5 NW 7 13 4 7 1019.6 - 0.0
29/01:00pm 21.5 20.1 9.4 46 6.5 NNW 7 15 4 8 1020.0 - 0.0
29/12:30pm 20.0 17.6 7.1 43 6.6 W 9 15 5 8 1020.5 - 0.0
29/12:00pm 19.8 17.1 7.5 45 6.3 W 11 17 6 9 1020.9 1020.9 0.0
29/11:30am 18.5 15.9 7.6 49 5.5 WSW 11 17 6 9 1021.5 - 0.0
29/11:00am 18.5 16.5 8.7 53 5.1 WSW 9 19 5 10 1022.0 - 0.0
29/10:30am 17.2 14.5 7.5 53 4.9 WSW 11 19 6 10 1022.2 - 0.0
29/10:00am 16.3 13.2 7.3 55 4.5 WSW 13 24 7 13 1022.4 - 0.0
29/09:30am 14.9 12.4 8.4 65 3.3 WSW 11 20 6 11 1022.4 - 0.0
29/09:00am 12.9 9.9 7.6 70 2.6 W 13 20 7 11 1022.3 1022.3 0.0
29/08:30am 11.9 8.7 7.0 72 2.3 W 13 20 7 11 1022.1 - 0.0
29/08:00am 10.9 7.7 6.8 76 1.9 W 13 17 7 9 1021.9 - 0.0
29/07:30am 9.6 6.4 7.0 84 1.2 W 13 19 7 10 1021.6 - 0.0
29/07:00am 9.0 6.0 7.6 91 0.7 W 13 17 7 9 1021.5 - 0.0
29/06:30am 8.7 6.1 7.8 94 0.4 W 11 15 6 8 1021.1 - 0.0
29/06:00am 8.7 5.7 7.8 94 0.4 W 13 17 7 9 1020.7 1020.7 0.0
29/05:30am 8.9 6.4 8.0 94 0.4 W 11 15 6 8 1020.4 - 0.0
29/05:00am 9.0 6.1 8.1 94 0.4 W 13 17 7 9 1020.1 - 0.0
29/04:30am 9.3 6.7 7.7 90 0.8 W 11 15 6 8 1020.0 - 0.0
29/04:00am 9.4 6.4 7.7 89 0.8 W 13 17 7 9 1019.7 - 0.0
29/03:30am 9.8 6.9 8.1 89 0.8 W 13 17 7 9 1019.6 - 0.0
29/03:00am 10.2 7.8 8.5 89 0.8 W 11 15 6 8 1019.5 1019.6 0.0
29/02:30am 10.9 8.5 8.8 87 1.0 W 11 17 6 9 1019.7 - 0.0
29/02:00am 10.8 9.1 9.7 93 0.6 WNW 9 13 5 7 1020.0 - 0.0
29/01:30am 11.2 9.3 8.9 86 1.1 W 9 11 5 6 1020.1 - 0.0
29/01:00am 11.8 9.6 9.5 86 1.2 W 11 17 6 9 1020.1 - 0.0
29/12:30am 12.5 10.9 11.6 94 0.5 W 11 13 6 7 1020.1 - 0.0
29/12:00am 12.8 11.7 11.9 94 0.5 W 9 13 5 7 1020.0 1020.0 0.0
 
Date/Time
EST
Temp
°C
App
Temp
°C
Dew
Point
Rel
Hum
%
Delta-T
°C
Wind Press
QNH
hPa
Press
MSL
hPa
Rain
since 9 am
mm
Dir
 
Spd
km/h
Gust
km/h
Spd
kts
Gust
kts
28/11:30pm 13.2 11.9 12.4 95 0.4 W 11 13 6 7 1020.2 - 0.0
28/11:00pm 13.3 12.2 12.0 92 0.7 W 9 13 5 7 1020.3 - 0.0
28/10:30pm 14.1 12.9 12.7 91 0.8 WNW 11 17 6 9 1020.5 - 0.0
28/10:00pm 14.6 13.5 13.1 91 0.8 WNW 11 15 6 8 1020.6 - 0.0
28/09:30pm 14.8 13.3 13.0 89 1.0 WNW 13 19 7 10 1020.6 - 0.0
28/09:00pm 14.6 14.1 12.8 89 1.0 NW 7 9 4 5 1020.7 1020.7 0.0
28/08:30pm 15.2 14.4 12.9 86 1.3 NNW 9 13 5 7 1020.7 - 0.0
28/08:00pm 15.7 14.8 13.7 88 1.1 NNW 11 15 6 8 1020.6 - 0.0

Other Formats:

Comma delimited format used in spreadsheet applications
http://www.bom.gov.au/fwo/IDN60801/IDN60801.94589.axf

JavaScript Object Notation format (JSON) in row-major order
http://www.bom.gov.au/fwo/IDN60801/IDN60801.94589.json